Time,TemperatureF,DewpointF,PressureIn,WindDirection,WindDirectionDegrees,WindSpeedMPH,WindSpeedGustMPH,Humidity,HourlyPrecipIn,Conditions,Clouds,dailyrainin,SoftwareType,DateUTC
2013-01-06 00:00:00,24.4,18.0,30.28,SE,126,0.0,2.0,76,0.00,CLR,,0.00,WeatherDisplay:10.37,2013-01-06 08:00:00,
2013-01-06 00:06:00,24.2,17.7,30.28,SE,126,2.3,2.3,76,0.00,CLR,,0.00,WeatherDisplay:10.37,2013-01-06 08:06:00,
2013-01-06 00:11:00,24.1,17.6,30.28,SE,126,2.3,2.3,76,0.00,CLR,,0.00,WeatherDisplay:10.37,2013-01-06 08:11:00,
2013-01-06 00:16:00,23.6,17.4,30.28,SE,126,2.3,2.3,77,0.00,CLR,,0.00,WeatherDisplay:10.37,2013-01-06 08:16:00,
2013-01-06 00:21:00,23.3,17.2,30.28,SE,127,2.3,2.3,77,0.00,CLR,,0.00,WeatherDisplay:10.37,2013-01-06 08:21:00,
2013-01-06 00:26:00,23.2,17.1,30.28,SE,127,3.5,3.5,77,0.00,CLR,,0.00,WeatherDisplay:10.37,2013-01-06 08:26:00,
2013-01-06 00:31:00,23.0,17.2,30.28,SE,126,2.3,2.3,78,0.00,CLR,,0.00,WeatherDisplay:10.37,2013-01-06 08:31:00,
2013-01-06 00:36:00,22.9,17.4,30.27,ESE,102,3.5,3.5,79,0.00,CLR,,0.00,WeatherDisplay:10.37,2013-01-06 08:36:00,
2013-01-06 00:41:00,22.7,17.2,30.28,SE,127,2.0,2.0,79,0.00,CLR,,0.00,WeatherDisplay:10.37,2013-01-06 08:41:00,
2013-01-06 00:46:00,22.7,17.2,30.28,SE,127,0.0,0.0,79,0.00,CLR,,0.00,WeatherDisplay:10.37,2013-01-06 08:46:00,
2013-01-06 00:51:00,22.7,17.2,30.28,SE,127,3.5,3.5,79,0.00,CLR,,0.00,WeatherDisplay:10.37,2013-01-06 08:51:00,
2013-01-06 00:56:00,22.5,17.3,30.28,SE,126,0.0,0.0,80,0.00,CLR,,0.00,WeatherDisplay:10.37,2013-01-06 08:56:00,
2013-01-06 01:01:00,22.4,17.2,30.28,SE,126,2.3,2.3,80,0.00,CLR,,0.00,WeatherDisplay:10.37,2013-01-06 09:01:00,
2013-01-06 01:06:00,22.1,16.9,30.29,SE,127,1.1,0.0,80,0.00,CLR,,0.00,WeatherDisplay:10.37,2013-01-06 09:06:00,
2013-01-06 01:12:00,21.8,16.6,30.29,SE,126,2.3,2.3,80,0.00,CLR,,0.00,WeatherDisplay:10.37,2013-01-06 09:12:00,
2013-01-06 01:17:00,21.4,16.2,30.29,SE,127,2.3,2.3,80,0.00,CLR,,0.00,WeatherDisplay:10.37,2013-01-06 09:17:00,
2013-01-06 01:22:00,21.4,16.5,30.28,SE,126,2.3,2.3,81,0.00,CLR,,0.00,WeatherDisplay:10.37,2013-01-06 09:22:00,
2013-01-06 01:27:00,21.3,16.4,30.29,SE,126,0.0,0.0,81,0.00,CLR,,0.00,WeatherDisplay:10.37,2013-01-06 09:27:00,
2013-01-06 01:33:00,21.3,16.7,30.29,SE,126,0.0,0.0,82,0.00,CLR,,0.00,WeatherDisplay:10.37,2013-01-06 09:33:00,
2013-01-06 01:38:00,21.4,16.8,30.29,SE,127,0.0,0.0,82,0.00,CLR,,0.00,WeatherDisplay:10.37,2013-01-06 09:38:00,
2013-01-06 01:43:00,21.8,17.2,30.30,SE,127,0.0,0.0,82,0.00,CLR,,0.00,WeatherDisplay:10.37,2013-01-06 09:43:00,
2013-01-06 01:48:00,21.9,17.2,30.30,SE,127,0.0,0.0,82,0.00,CLR,,0.00,WeatherDisplay:10.37,2013-01-06 09:48:00,
2013-01-06 01:53:00,22.1,17.4,30.30,SE,126,0.0,0.0,82,0.00,CLR,,0.00,WeatherDisplay:10.37,2013-01-06 09:53:00,
2013-01-06 01:58:00,22.4,17.7,30.30,SE,126,1.1,0.0,82,0.00,CLR,,0.00,WeatherDisplay:10.37,2013-01-06 09:58:00,
2013-01-06 02:03:00,22.5,17.8,30.29,SE,126,0.0,0.0,82,0.00,CLR,,0.00,WeatherDisplay:10.37,2013-01-06 10:03:00,
2013-01-06 02:09:00,22.7,18.0,30.30,SE,127,0.0,0.0,82,0.00,CLR,,0.00,WeatherDisplay:10.37,2013-01-06 10:09:00,
2013-01-06 02:14:00,22.9,18.2,30.29,SE,126,1.1,0.0,82,0.00,CLR,,0.00,WeatherDisplay:10.37,2013-01-06 10:14:00,
2013-01-06 02:19:00,23.0,18.3,30.29,SE,126,0.0,0.0,82,0.00,CLR,,0.00,WeatherDisplay:10.37,2013-01-06 10:19:00,
2013-01-06 02:24:00,23.2,18.5,30.30,SE,126,0.0,0.0,82,0.00,CLR,,0.00,WeatherDisplay:10.37,2013-01-06 10:24:00,
2013-01-06 02:29:00,23.2,18.2,30.30,SE,126,0.0,0.0,81,0.00,CLR,,0.00,WeatherDisplay:10.37,2013-01-06 10:29:00,
2013-01-06 02:34:00,23.3,18.3,30.30,SE,127,2.3,2.3,81,0.00,CLR,,0.00,WeatherDisplay:10.37,2013-01-06 10:34:00,
2013-01-06 02:40:00,23.5,18.5,30.29,ESE,117,3.5,3.5,81,0.00,CLR,,0.00,WeatherDisplay:10.37,2013-01-06 10:40:00,
2013-01-06 02:45:00,23.5,18.2,30.29,ESE,109,3.5,3.5,80,0.00,CLR,,0.00,WeatherDisplay:10.37,2013-01-06 10:45:00,
2013-01-06 02:50:00,23.6,18.3,30.29,ESE,109,2.3,0.0,80,0.00,CLR,,0.00,WeatherDisplay:10.37,2013-01-06 10:50:00,
2013-01-06 02:55:00,23.6,18.3,30.29,ESE,110,1.1,1.1,80,0.00,CLR,,0.00,WeatherDisplay:10.37,2013-01-06 10:55:00,
2013-01-06 03:00:00,23.8,18.2,30.29,ESE,110,2.3,2.3,79,0.00,CLR,,0.00,WeatherDisplay:10.37,2013-01-06 11:00:00,
2013-01-06 03:05:00,23.9,18.3,30.30,ESE,109,3.5,3.5,79,0.00,CLR,,0.00,WeatherDisplay:10.37,2013-01-06 11:05:00,
2013-01-06 03:10:00,23.9,18.0,30.30,ESE,116,3.5,3.5,78,0.00,CLR,,0.00,WeatherDisplay:10.37,2013-01-06 11:10:00,
2013-01-06 03:15:00,23.9,18.0,30.29,ESE,116,4.6,4.6,78,0.00,CLR,,0.00,WeatherDisplay:10.37,2013-01-06 11:15:00,
2013-01-06 03:20:00,23.9,18.0,30.29,ESE,116,2.3,2.3,78,0.00,CLR,,0.00,WeatherDisplay:10.37,2013-01-06 11:20:00,
2013-01-06 03:25:00,23.9,18.0,30.29,ESE,116,3.5,0.0,78,0.00,CLR,,0.00,WeatherDisplay:10.37,2013-01-06 11:25:00,
2013-01-06 03:30:00,24.1,17.9,30.29,ESE,116,2.3,2.3,77,0.00,CLR,,0.00,WeatherDisplay:10.37,2013-01-06 11:30:00,
2013-01-06 03:35:00,24.1,18.2,30.29,ESE,116,2.3,2.3,78,0.00,CLR,,0.00,WeatherDisplay:10.37,2013-01-06 11:35:00,
2013-01-06 03:40:00,24.1,18.2,30.29,ESE,116,1.1,1.1,78,0.00,CLR,,0.00,WeatherDisplay:10.37,2013-01-06 11:40:00,
2013-01-06 03:45:00,24.2,18.3,30.29,ESE,116,1.0,0.0,78,0.00,CLR,,0.00,WeatherDisplay:10.37,2013-01-06 11:45:00,
2013-01-06 03:50:00,24.2,18.3,30.29,ESE,116,1.1,0.0,78,0.00,CLR,,0.00,WeatherDisplay:10.37,2013-01-06 11:50:00,
2013-01-06 03:55:00,24.2,18.3,30.30,ESE,116,0.0,0.0,78,0.00,CLR,,0.00,WeatherDisplay:10.37,2013-01-06 11:55:00,
2013-01-06 04:00:00,24.2,18.3,30.30,ESE,114,0.0,0.0,78,0.00,CLR,,0.00,WeatherDisplay:10.37,2013-01-06 12:00:00,
2013-01-06 04:05:00,24.4,18.8,30.30,ESE,116,0.0,0.0,79,0.00,CLR,,0.00,WeatherDisplay:10.37,2013-01-06 12:05:00,
2013-01-06 04:10:00,24.4,18.8,30.29,ESE,116,0.0,0.0,79,0.00,CLR,,0.00,WeatherDisplay:10.37,2013-01-06 12:10:00,
2013-01-06 04:15:00,24.4,18.8,30.30,ESE,116,0.0,0.0,79,0.00,CLR,,0.00,WeatherDisplay:10.37,2013-01-06 12:15:00,
2013-01-06 04:20:00,24.4,19.1,30.30,ESE,116,1.1,1.1,80,0.00,CLR,,0.00,WeatherDisplay:10.37,2013-01-06 12:20:00,
2013-01-06 04:25:00,24.4,19.1,30.29,ESE,116,1.1,1.1,80,0.00,CLR,,0.00,WeatherDisplay:10.37,2013-01-06 12:25:00,
2013-01-06 04:30:00,24.2,19.2,30.29,ESE,116,1.0,1.0,81,0.00,CLR,,0.00,WeatherDisplay:10.37,2013-01-06 12:30:00,
2013-01-06 04:35:00,24.2,19.2,30.29,ESE,116,1.1,0.0,81,0.00,CLR,,0.00,WeatherDisplay:10.37,2013-01-06 12:35:00,
2013-01-06 04:40:00,24.2,19.5,30.28,ESE,116,1.1,0.0,82,0.00,CLR,,0.00,WeatherDisplay:10.37,2013-01-06 12:40:00,
2013-01-06 04:45:00,24.4,19.7,30.28,ESE,116,2.3,2.3,82,0.00,CLR,,0.00,WeatherDisplay:10.37,2013-01-06 12:45:00,
2013-01-06 04:50:00,24.4,19.7,30.28,ESE,116,1.1,1.1,82,0.00,CLR,,0.00,WeatherDisplay:10.37,2013-01-06 12:50:00,
2013-01-06 04:55:00,24.4,20.0,30.28,ESE,116,0.0,0.0,83,0.00,CLR,,0.00,WeatherDisplay:10.37,2013-01-06 12:55:00,
2013-01-06 05:00:00,24.5,20.1,30.28,ESE,116,0.0,0.0,83,0.00,CLR,,0.00,WeatherDisplay:10.37,2013-01-06 13:00:00,
2013-01-06 05:05:00,24.5,20.1,30.28,ESE,116,2.3,2.3,83,0.00,CLR,,0.00,WeatherDisplay:10.37,2013-01-06 13:05:00,
2013-01-06 05:10:00,24.5,19.8,30.28,ESE,116,2.3,2.3,82,0.00,CLR,,0.00,WeatherDisplay:10.37,2013-01-06 13:10:00,
2013-01-06 05:15:00,24.5,19.8,30.28,ESE,103,3.5,3.5,82,0.00,CLR,,0.00,WeatherDisplay:10.37,2013-01-06 13:15:00,
2013-01-06 05:20:00,24.7,19.7,30.28,SE,140,4.6,4.6,81,0.00,CLR,,0.00,WeatherDisplay:10.37,2013-01-06 13:20:00,
2013-01-06 05:25:00,24.8,19.8,30.28,SE,140,3.5,0.0,81,0.00,CLR,,0.00,WeatherDisplay:10.37,2013-01-06 13:25:00,
2013-01-06 05:30:00,24.8,19.8,30.28,SE,140,0.0,0.0,81,0.00,CLR,,0.00,WeatherDisplay:10.37,2013-01-06 13:30:00,
2013-01-06 05:35:00,25.0,19.7,30.28,ESE,120,2.3,2.3,80,0.00,CLR,,0.00,WeatherDisplay:10.37,2013-01-06 13:35:00,
2013-01-06 05:40:00,25.0,19.7,30.27,ESE,120,1.1,0.0,80,0.00,CLR,,0.00,WeatherDisplay:10.37,2013-01-06 13:40:00,
2013-01-06 05:45:00,25.0,19.7,30.27,ESE,120,2.3,2.3,80,0.00,CLR,,0.00,WeatherDisplay:10.37,2013-01-06 13:45:00,
2013-01-06 05:50:00,25.0,19.7,30.27,ESE,120,2.3,2.3,80,0.00,CLR,,0.00,WeatherDisplay:10.37,2013-01-06 13:50:00,
2013-01-06 05:55:00,25.0,19.7,30.26,ESE,116,2.3,2.3,80,0.00,CLR,,0.00,WeatherDisplay:10.37,2013-01-06 13:55:00,
2013-01-06 06:00:00,25.1,19.8,30.26,ESE,103,5.0,5.0,80,0.00,CLR,,0.00,WeatherDisplay:10.37,2013-01-06 14:00:00,
2013-01-06 06:05:00,25.3,20.0,30.26,ESE,102,4.6,4.6,80,0.00,CLR,,0.00,WeatherDisplay:10.37,2013-01-06 14:05:00,
2013-01-06 06:10:00,25.3,20.0,30.26,East,92,6.0,6.0,80,0.00,CLR,,0.00,WeatherDisplay:10.37,2013-01-06 14:10:00,
2013-01-06 06:15:00,25.3,19.7,30.26,East,79,4.6,4.6,79,0.00,CLR,,0.00,WeatherDisplay:10.37,2013-01-06 14:15:00,
2013-01-06 06:20:00,25.3,19.7,30.26,ESE,117,3.5,3.5,79,0.00,CLR,,0.00,WeatherDisplay:10.37,2013-01-06 14:20:00,
2013-01-06 06:25:00,25.3,19.7,30.27,ESE,117,2.3,2.3,79,0.00,CLR,,0.00,WeatherDisplay:10.37,2013-01-06 14:25:00,
2013-01-06 06:31:00,25.3,20.0,30.28,ESE,117,0.0,2.0,80,0.00,CLR,,0.00,WeatherDisplay:10.37,2013-01-06 14:31:00,
2013-01-06 06:36:00,25.3,20.0,30.28,ESE,117,0.0,0.0,80,0.00,CLR,,0.00,WeatherDisplay:10.37,2013-01-06 14:36:00,
2013-01-06 06:41:00,25.3,20.0,30.28,ESE,117,0.0,0.0,80,0.00,CLR,,0.00,WeatherDisplay:10.37,2013-01-06 14:41:00,
2013-01-06 06:46:00,25.1,19.8,30.29,ESE,117,0.0,0.0,80,0.00,CLR,,0.00,WeatherDisplay:10.37,2013-01-06 14:46:00,
2013-01-06 06:51:00,25.1,19.8,30.29,ESE,117,0.0,0.0,80,0.00,CLR,,0.00,WeatherDisplay:10.37,2013-01-06 14:51:00,
2013-01-06 06:56:00,25.1,20.1,30.29,ESE,117,0.0,0.0,81,0.00,CLR,,0.00,WeatherDisplay:10.37,2013-01-06 14:56:00,
2013-01-06 07:02:00,25.1,20.1,30.29,ESE,117,0.0,0.0,81,0.00,CLR,,0.00,WeatherDisplay:10.37,2013-01-06 15:02:00,
2013-01-06 07:07:00,25.1,20.1,30.30,ESE,117,0.0,0.0,81,0.00,CLR,,0.00,WeatherDisplay:10.37,2013-01-06 15:07:00,
2013-01-06 07:12:00,25.1,20.1,30.31,ESE,117,2.3,2.3,81,0.00,CLR,,0.00,WeatherDisplay:10.37,2013-01-06 15:12:00,
2013-01-06 07:17:00,25.1,20.1,30.31,ESE,117,2.3,2.3,81,0.00,CLR,,0.00,WeatherDisplay:10.37,2013-01-06 15:17:00,
2013-01-06 07:22:00,25.0,20.0,30.31,ESE,117,3.0,3.0,81,0.00,CLR,,0.00,WeatherDisplay:10.37,2013-01-06 15:22:00,
2013-01-06 07:27:00,25.0,20.0,30.31,ESE,117,2.3,2.3,81,0.00,CLR,,0.00,WeatherDisplay:10.37,2013-01-06 15:27:00,
2013-01-06 07:32:00,24.8,20.1,30.31,East,89,3.5,3.5,82,0.00,CLR,,0.00,WeatherDisplay:10.37,2013-01-06 15:32:00,
2013-01-06 07:37:00,24.7,20.0,30.31,East,89,2.3,2.3,82,0.00,CLR,,0.00,WeatherDisplay:10.37,2013-01-06 15:37:00,
2013-01-06 07:42:00,24.5,19.8,30.31,ESE,110,3.5,3.5,82,0.00,CLR,,0.00,WeatherDisplay:10.37,2013-01-06 15:42:00,
2013-01-06 07:47:00,24.4,19.7,30.31,East,99,2.3,2.3,82,0.00,CLR,,0.00,WeatherDisplay:10.37,2013-01-06 15:47:00,
2013-01-06 07:52:00,24.2,19.5,30.31,East,82,2.0,2.0,82,0.00,CLR,,0.00,WeatherDisplay:10.37,2013-01-06 15:52:00,
2013-01-06 07:57:00,24.1,19.7,30.31,East,82,2.3,2.3,83,0.00,CLR,,0.00,WeatherDisplay:10.37,2013-01-06 15:57:00,
2013-01-06 08:02:00,24.1,19.7,30.31,East,82,0.0,0.0,83,0.00,CLR,,0.00,WeatherDisplay:10.37,2013-01-06 16:02:00,
2013-01-06 08:07:00,23.9,19.5,30.31,East,82,0.0,0.0,83,0.00,CLR,,0.00,WeatherDisplay:10.37,2013-01-06 16:07:00,
2013-01-06 08:12:00,24.1,19.7,30.31,East,82,1.0,1.0,83,0.00,CLR,,0.00,WeatherDisplay:10.37,2013-01-06 16:12:00,
2013-01-06 08:17:00,24.1,19.7,30.32,East,82,0.0,0.0,83,0.00,CLR,,0.00,WeatherDisplay:10.37,2013-01-06 16:17:00,
2013-01-06 08:22:00,24.1,19.7,30.31,East,82,0.0,0.0,83,0.00,CLR,,0.00,WeatherDisplay:10.37,2013-01-06 16:22:00,
2013-01-06 08:27:00,24.2,19.8,30.31,East,82,0.0,0.0,83,0.00,CLR,,0.00,WeatherDisplay:10.37,2013-01-06 16:27:00,
2013-01-06 08:32:00,24.4,20.0,30.31,East,82,0.0,0.0,83,0.00,CLR,,0.00,WeatherDisplay:10.37,2013-01-06 16:32:00,
2013-01-06 08:37:00,24.5,20.1,30.32,East,82,0.0,0.0,83,0.00,CLR,,0.00,WeatherDisplay:10.37,2013-01-06 16:37:00,
2013-01-06 08:42:00,24.8,20.4,30.32,East,82,0.0,0.0,83,0.00,CLR,,0.00,WeatherDisplay:10.37,2013-01-06 16:42:00,
2013-01-06 08:47:00,25.0,20.3,30.32,East,82,0.0,0.0,82,0.00,CLR,,0.00,WeatherDisplay:10.37,2013-01-06 16:47:00,
2013-01-06 08:52:00,25.3,20.6,30.32,East,82,0.0,0.0,82,0.00,CLR,,0.00,WeatherDisplay:10.37,2013-01-06 16:52:00,
2013-01-06 08:57:00,25.8,20.8,30.31,East,82,2.3,2.3,81,0.00,CLR,,0.00,WeatherDisplay:10.37,2013-01-06 16:57:00,
2013-01-06 09:02:00,26.1,20.8,30.32,East,82,0.0,0.0,80,0.00,CLR,,0.00,WeatherDisplay:10.37,2013-01-06 17:02:00,
2013-01-06 09:07:00,26.7,21.4,30.32,East,82,1.1,1.1,80,0.00,CLR,,0.00,WeatherDisplay:10.37,2013-01-06 17:07:00,
2013-01-06 09:12:00,27.6,21.6,30.32,East,82,3.5,3.5,78,0.00,CLR,,0.00,WeatherDisplay:10.37,2013-01-06 17:12:00,
2013-01-06 09:17:00,28.1,21.8,30.31,East,82,3.5,3.5,77,0.00,CLR,,0.00,WeatherDisplay:10.37,2013-01-06 17:17:00,
2013-01-06 09:22:00,28.5,21.6,30.31,East,82,3.0,3.0,75,0.00,CLR,,0.00,WeatherDisplay:10.37,2013-01-06 17:22:00,
2013-01-06 09:27:00,28.5,21.6,30.31,East,82,1.0,1.0,75,0.00,CLR,,0.00,WeatherDisplay:10.37,2013-01-06 17:27:00,
2013-01-06 09:32:00,28.8,21.6,30.31,East,82,0.0,0.0,74,0.00,CLR,,0.00,WeatherDisplay:10.37,2013-01-06 17:32:00,
2013-01-06 09:37:00,29.1,21.8,30.31,East,82,1.1,0.0,74,0.00,CLR,,0.00,WeatherDisplay:10.37,2013-01-06 17:37:00,
2013-01-06 09:42:00,29.4,21.8,30.32,East,82,2.3,2.3,73,0.00,CLR,,0.00,WeatherDisplay:10.37,2013-01-06 17:42:00,
2013-01-06 09:47:00,29.7,21.8,30.30,East,82,3.5,3.5,72,0.00,CLR,,0.00,WeatherDisplay:10.37,2013-01-06 17:47:00,
2013-01-06 09:52:00,30.3,22.0,30.31,East,82,2.3,2.3,71,0.00,CLR,,0.00,WeatherDisplay:10.37,2013-01-06 17:52:00,
2013-01-06 09:57:00,30.9,22.3,30.30,East,82,3.5,3.5,70,0.00,CLR,,0.00,WeatherDisplay:10.37,2013-01-06 17:57:00,
2013-01-06 10:02:00,31.5,22.5,30.30,East,83,2.3,2.3,69,0.00,CLR,,0.00,WeatherDisplay:10.37,2013-01-06 18:02:00,
2013-01-06 10:07:00,31.9,22.5,30.30,ESE,113,3.5,3.5,68,0.00,CLR,,0.00,WeatherDisplay:10.37,2013-01-06 18:07:00,
2013-01-06 10:12:00,32.5,22.8,30.30,East,92,2.0,2.0,67,0.00,CLR,,0.00,WeatherDisplay:10.37,2013-01-06 18:12:00,
2013-01-06 10:17:00,33.2,22.7,30.29,East,92,2.0,2.0,65,0.00,CLR,,0.00,WeatherDisplay:10.37,2013-01-06 18:17:00,
2013-01-06 10:22:00,33.7,23.2,30.29,East,92,0.0,0.0,65,0.00,CLR,,0.00,WeatherDisplay:10.37,2013-01-06 18:22:00,
2013-01-06 10:27:00,34.0,22.7,30.29,East,92,3.5,3.5,63,0.00,CLR,,0.00,WeatherDisplay:10.37,2013-01-06 18:27:00,
2013-01-06 10:32:00,34.0,23.1,30.29,East,92,3.5,3.5,64,0.00,CLR,,0.00,WeatherDisplay:10.37,2013-01-06 18:32:00,
2013-01-06 10:37:00,34.4,23.1,30.28,East,92,1.1,1.1,63,0.00,CLR,,0.00,WeatherDisplay:10.37,2013-01-06 18:37:00,
2013-01-06 10:42:00,34.6,22.9,30.28,East,83,4.6,4.6,62,0.00,CLR,,0.00,WeatherDisplay:10.37,2013-01-06 18:42:00,
2013-01-06 10:47:00,34.3,23.0,30.28,East,79,3.5,3.5,63,0.00,CLR,,0.00,WeatherDisplay:10.37,2013-01-06 18:47:00,
2013-01-06 10:52:00,34.4,23.1,30.28,ENE,64,3.5,3.5,63,0.00,CLR,,0.00,WeatherDisplay:10.37,2013-01-06 18:52:00,
2013-01-06 10:57:00,34.7,23.0,30.28,East,93,5.0,5.0,62,0.00,CLR,,0.00,WeatherDisplay:10.37,2013-01-06 18:57:00,
2013-01-06 11:02:00,34.9,23.2,30.27,NE,51,4.0,4.0,62,0.00,CLR,,0.00,WeatherDisplay:10.37,2013-01-06 19:02:00,
2013-01-06 11:07:00,34.9,23.2,30.29,ENE,58,5.8,5.8,62,0.00,CLR,,0.00,WeatherDisplay:10.37,2013-01-06 19:07:00,
2013-01-06 11:12:00,35.3,23.2,30.29,ENE,78,3.5,3.5,61,0.00,CLR,,0.00,WeatherDisplay:10.37,2013-01-06 19:12:00,
2013-01-06 11:17:00,35.5,23.4,30.27,East,90,5.8,5.8,61,0.00,CLR,,0.00,WeatherDisplay:10.37,2013-01-06 19:17:00,
2013-01-06 11:22:00,35.9,23.7,30.27,ESE,114,5.8,5.8,61,0.00,CLR,,0.00,WeatherDisplay:10.37,2013-01-06 19:22:00,
2013-01-06 11:27:00,36.6,24.0,30.27,ESE,119,4.6,4.6,60,0.00,CLR,,0.00,WeatherDisplay:10.37,2013-01-06 19:27:00,
2013-01-06 11:32:00,37.0,24.0,30.26,ESE,113,3.5,3.5,59,0.00,CLR,,0.00,WeatherDisplay:10.37,2013-01-06 19:32:00,
2013-01-06 11:37:00,37.5,24.5,30.26,ESE,119,4.6,4.6,59,0.00,CLR,,0.00,WeatherDisplay:10.37,2013-01-06 19:37:00,
2013-01-06 11:47:00,38.2,24.3,30.25,East,95,3.5,3.5,57,0.00,CLR,,0.00,WeatherDisplay:10.37,2013-01-06 19:47:00,
2013-01-06 11:52:00,38.5,24.1,30.25,East,96,3.5,3.5,56,0.00,CLR,,0.00,WeatherDisplay:10.37,2013-01-06 19:52:00,
2013-01-06 11:58:00,38.8,24.4,30.25,East,95,2.0,2.0,56,0.00,CLR,,0.00,WeatherDisplay:10.37,2013-01-06 19:58:00,
2013-01-06 12:03:00,39.1,24.3,30.25,East,100,3.0,3.0,55,0.00,CLR,,0.00,WeatherDisplay:10.37,2013-01-06 20:03:00,
2013-01-06 12:08:00,38.8,24.4,30.25,East,93,4.6,4.6,56,0.00,CLR,,0.00,WeatherDisplay:10.37,2013-01-06 20:08:00,
2013-01-06 12:13:00,39.1,24.3,30.25,East,90,4.6,4.6,55,0.00,CLR,,0.00,WeatherDisplay:10.37,2013-01-06 20:13:00,
2013-01-06 12:15:00,39.2,24.4,30.25,NE,47,3.5,3.5,55,0.00,CLR,,0.00,WeatherDisplay:10.37,2013-01-06 20:15:00,
2013-01-06 12:20:00,38.9,24.1,30.24,NE,40,5.8,5.8,55,0.00,CLR,,0.00,WeatherDisplay:10.37,2013-01-06 20:20:00,
2013-01-06 12:25:00,38.9,24.5,30.24,ESE,109,3.5,3.5,56,0.00,CLR,,0.00,WeatherDisplay:10.37,2013-01-06 20:25:00,
2013-01-06 12:31:00,38.5,24.2,30.24,NE,43,5.0,7.0,56,0.00,CLR,,0.00,WeatherDisplay:10.37,2013-01-06 20:31:00,
2013-01-06 12:36:00,38.3,24.4,30.24,NE,45,6.0,6.0,57,0.00,CLR,,0.00,WeatherDisplay:10.37,2013-01-06 20:36:00,
2013-01-06 12:41:00,38.2,24.3,30.24,ENE,68,6.0,6.0,57,0.00,CLR,,0.00,WeatherDisplay:10.37,2013-01-06 20:41:00,
2013-01-06 12:46:00,38.2,24.3,30.23,NE,47,5.8,5.8,57,0.00,CLR,,0.00,WeatherDisplay:10.37,2013-01-06 20:46:00,
2013-01-06 12:51:00,38.6,24.7,30.24,ENE,65,5.8,5.8,57,0.00,CLR,,0.00,WeatherDisplay:10.37,2013-01-06 20:51:00,
2013-01-06 12:56:00,38.5,24.6,30.23,ENE,64,5.8,5.8,57,0.00,CLR,,0.00,WeatherDisplay:10.37,2013-01-06 20:56:00,
2013-01-06 13:00:00,38.8,24.9,30.23,NE,42,3.5,3.5,57,0.00,CLR,,0.00,WeatherDisplay:10.37,2013-01-06 21:00:00,
2013-01-06 13:05:00,38.8,24.9,30.23,East,85,4.6,4.6,57,0.00,CLR,,0.00,WeatherDisplay:10.37,2013-01-06 21:05:00,
2013-01-06 13:10:00,38.6,24.7,30.22,ENE,62,5.8,5.8,57,0.00,CLR,,0.00,WeatherDisplay:10.37,2013-01-06 21:10:00,
2013-01-06 13:15:00,38.8,24.9,30.22,ENE,58,4.6,4.6,57,0.00,CLR,,0.00,WeatherDisplay:10.37,2013-01-06 21:15:00,
2013-01-06 13:20:00,39.1,24.7,30.21,NE,45,4.0,4.0,56,0.00,CLR,,0.00,WeatherDisplay:10.37,2013-01-06 21:20:00,
2013-01-06 13:25:00,39.2,24.8,30.21,ENE,61,5.8,5.8,56,0.00,CLR,,0.00,WeatherDisplay:10.37,2013-01-06 21:25:00,
2013-01-06 13:30:00,39.5,25.1,30.20,NE,54,4.6,4.6,56,0.00,CLR,,0.00,WeatherDisplay:10.37,2013-01-06 21:30:00,
2013-01-06 13:35:00,39.6,24.7,30.20,NE,47,3.5,3.5,55,0.00,CLR,,0.00,WeatherDisplay:10.37,2013-01-06 21:35:00,
2013-01-06 13:40:00,40.2,25.3,30.20,ESE,104,2.3,2.3,55,0.00,CLR,,0.00,WeatherDisplay:10.37,2013-01-06 21:40:00,
2013-01-06 13:45:00,40.5,25.1,30.20,East,79,3.5,3.5,54,0.00,CLR,,0.00,WeatherDisplay:10.37,2013-01-06 21:45:00,
2013-01-06 13:50:00,40.5,25.1,30.20,East,89,6.0,6.0,54,0.00,CLR,,0.00,WeatherDisplay:10.37,2013-01-06 21:50:00,
2013-01-06 13:55:00,40.3,25.0,30.20,East,88,5.0,5.0,54,0.00,CLR,,0.00,WeatherDisplay:10.37,2013-01-06 21:55:00,
2013-01-06 14:00:00,40.3,25.0,30.20,East,97,3.5,3.5,54,0.00,CLR,,0.00,WeatherDisplay:10.37,2013-01-06 22:00:00,
2013-01-06 14:05:00,40.6,24.8,30.19,NE,51,4.6,4.6,53,0.00,CLR,,0.00,WeatherDisplay:10.37,2013-01-06 22:05:00,
2013-01-06 14:10:00,40.8,25.0,30.19,NE,54,3.5,3.5,53,0.00,CLR,,0.00,WeatherDisplay:10.37,2013-01-06 22:10:00,
2013-01-06 14:15:00,40.9,25.1,30.19,NE,55,3.5,3.5,53,0.00,CLR,,0.00,WeatherDisplay:10.37,2013-01-06 22:15:00,
2013-01-06 14:20:00,41.1,25.3,30.19,ENE,58,2.3,2.3,53,0.00,CLR,,0.00,WeatherDisplay:10.37,2013-01-06 22:20:00,
2013-01-06 14:25:00,41.3,25.0,30.19,East,93,5.0,5.0,52,0.00,CLR,,0.00,WeatherDisplay:10.37,2013-01-06 22:25:00,
2013-01-06 14:30:00,41.2,24.9,30.19,East,93,3.5,3.5,52,0.00,CLR,,0.00,WeatherDisplay:10.37,2013-01-06 22:30:00,
2013-01-06 14:35:00,41.3,25.0,30.19,East,92,2.3,2.3,52,0.00,CLR,,0.00,WeatherDisplay:10.37,2013-01-06 22:35:00,
2013-01-06 14:40:00,41.5,25.2,30.18,East,92,3.0,3.0,52,0.00,CLR,,0.00,WeatherDisplay:10.37,2013-01-06 22:40:00,
2013-01-06 14:45:00,41.3,25.0,30.18,ENE,59,4.0,4.0,52,0.00,CLR,,0.00,WeatherDisplay:10.37,2013-01-06 22:45:00,
2013-01-06 14:50:00,41.3,25.0,30.19,NE,48,3.5,3.5,52,0.00,CLR,,0.00,WeatherDisplay:10.37,2013-01-06 22:50:00,
2013-01-06 14:55:00,41.3,25.0,30.19,ENE,62,4.6,4.6,52,0.00,CLR,,0.00,WeatherDisplay:10.37,2013-01-06 22:55:00,
2013-01-06 15:00:00,41.5,25.2,30.18,ENE,62,2.3,0.0,52,0.00,CLR,,0.00,WeatherDisplay:10.37,2013-01-06 23:00:00,
2013-01-06 15:05:00,41.5,25.2,30.18,ENE,69,3.5,3.5,52,0.00,CLR,,0.00,WeatherDisplay:10.37,2013-01-06 23:05:00,
2013-01-06 15:10:00,41.5,25.2,30.18,ENE,65,3.5,3.5,52,0.00,CLR,,0.00,WeatherDisplay:10.37,2013-01-06 23:10:00,
2013-01-06 15:15:00,41.5,25.6,30.18,East,92,3.0,3.0,53,0.00,CLR,,0.00,WeatherDisplay:10.37,2013-01-06 23:15:00,
2013-01-06 15:20:00,41.5,25.2,30.17,East,80,4.0,4.0,52,0.00,CLR,,0.00,WeatherDisplay:10.37,2013-01-06 23:20:00,
2013-01-06 15:25:00,41.3,25.0,30.17,East,82,3.5,3.5,52,0.00,CLR,,0.00,WeatherDisplay:10.37,2013-01-06 23:25:00,
2013-01-06 15:30:00,41.2,25.3,30.18,ENE,64,5.8,5.8,53,0.00,CLR,,0.00,WeatherDisplay:10.37,2013-01-06 23:30:00,
2013-01-06 15:35:00,40.9,25.1,30.18,East,82,4.6,4.6,53,0.00,CLR,,0.00,WeatherDisplay:10.37,2013-01-06 23:35:00,
2013-01-06 15:40:00,40.8,25.4,30.18,East,82,3.5,3.5,54,0.00,CLR,,0.00,WeatherDisplay:10.37,2013-01-06 23:40:00,
2013-01-06 15:45:00,40.6,25.2,30.18,ENE,66,3.5,3.5,54,0.00,CLR,,0.00,WeatherDisplay:10.37,2013-01-06 23:45:00,
2013-01-06 15:50:00,40.3,25.0,30.18,East,97,3.5,3.5,54,0.00,CLR,,0.00,WeatherDisplay:10.37,2013-01-06 23:50:00,
2013-01-06 15:55:00,40.1,25.2,30.18,East,79,5.8,5.8,55,0.00,CLR,,0.00,WeatherDisplay:10.37,2013-01-06 23:55:00,
2013-01-06 16:00:00,39.8,25.4,30.18,East,88,2.3,2.3,56,0.00,CLR,,0.00,WeatherDisplay:10.37,2013-01-07 00:00:00,
2013-01-06 16:05:00,39.3,24.9,30.18,East,88,0.0,1.0,56,0.00,CLR,,0.00,WeatherDisplay:10.37,2013-01-07 00:05:00,
2013-01-06 16:10:00,39.0,25.0,30.18,East,88,0.0,2.0,57,0.00,CLR,,0.00,WeatherDisplay:10.37,2013-01-07 00:10:00,
2013-01-06 16:16:00,38.6,25.1,30.18,East,88,0.0,0.0,58,0.00,CLR,,0.00,WeatherDisplay:10.37,2013-01-07 00:16:00,
2013-01-06 16:21:00,38.3,24.8,30.19,East,88,2.0,2.0,58,0.00,CLR,,0.00,WeatherDisplay:10.37,2013-01-07 00:21:00,
2013-01-06 16:26:00,38.0,24.5,30.19,East,97,5.0,5.0,58,0.00,CLR,,0.00,WeatherDisplay:10.37,2013-01-07 00:26:00,
2013-01-06 16:31:00,37.8,24.7,30.19,East,97,3.5,3.5,59,0.00,CLR,,0.00,WeatherDisplay:10.37,2013-01-07 00:31:00,
2013-01-06 16:36:00,37.3,24.3,30.18,East,90,4.6,4.6,59,0.00,CLR,,0.00,WeatherDisplay:10.37,2013-01-07 00:36:00,
2013-01-06 16:42:00,36.8,24.2,30.18,East,92,1.1,1.1,60,0.00,CLR,,0.00,WeatherDisplay:10.37,2013-01-07 00:42:00,
2013-01-06 16:47:00,36.5,24.3,30.18,East,92,2.3,2.3,61,0.00,CLR,,0.00,WeatherDisplay:10.37,2013-01-07 00:47:00,
2013-01-06 16:52:00,35.9,24.1,30.19,East,92,3.5,3.5,62,0.00,CLR,,0.00,WeatherDisplay:10.37,2013-01-07 00:52:00,
2013-01-06 16:57:00,35.3,23.6,30.19,East,92,2.3,2.3,62,0.00,CLR,,0.00,WeatherDisplay:10.37,2013-01-07 00:57:00,
2013-01-06 17:02:00,34.6,23.7,30.19,East,90,0.0,0.0,64,0.00,CLR,,0.00,WeatherDisplay:10.37,2013-01-07 01:02:00,
2013-01-06 17:07:00,34.1,23.6,30.20,SE,138,3.0,3.0,65,0.00,CLR,,0.00,WeatherDisplay:10.37,2013-01-07 01:07:00,
2013-01-06 17:12:00,34.0,23.5,30.20,SE,141,3.5,3.5,65,0.00,CLR,,0.00,WeatherDisplay:10.37,2013-01-07 01:12:00,
2013-01-06 17:17:00,33.8,23.6,30.19,SE,131,5.8,5.8,66,0.00,CLR,,0.00,WeatherDisplay:10.37,2013-01-07 01:17:00,
2013-01-06 17:22:00,33.7,23.5,30.20,SE,143,3.5,3.5,66,0.00,CLR,,0.00,WeatherDisplay:10.37,2013-01-07 01:22:00,
2013-01-06 17:27:00,33.2,23.1,30.21,SE,144,4.6,4.6,66,0.00,CLR,,0.00,WeatherDisplay:10.37,2013-01-07 01:27:00,
2013-01-06 17:32:00,32.9,23.1,30.21,SE,144,3.0,3.0,67,0.00,CLR,,0.00,WeatherDisplay:10.37,2013-01-07 01:32:00,
2013-01-06 17:37:00,32.7,23.3,30.21,SE,143,2.3,2.3,68,0.00,CLR,,0.00,WeatherDisplay:10.37,2013-01-07 01:37:00,
2013-01-06 17:42:00,32.2,22.8,30.22,SE,143,3.5,3.5,68,0.00,CLR,,0.00,WeatherDisplay:10.37,2013-01-07 01:42:00,
2013-01-06 17:47:00,31.9,22.9,30.23,SE,144,2.3,2.3,69,0.00,CLR,,0.00,WeatherDisplay:10.37,2013-01-07 01:47:00,
2013-01-06 17:52:00,31.8,22.8,30.23,SSE,147,4.0,4.0,69,0.00,CLR,,0.00,WeatherDisplay:10.37,2013-01-07 01:52:00,
2013-01-06 17:57:00,31.6,22.6,30.23,SSE,151,4.6,4.6,69,0.00,CLR,,0.00,WeatherDisplay:10.37,2013-01-07 01:57:00,
2013-01-06 18:02:00,31.5,22.8,30.23,SE,137,3.5,3.5,70,0.00,CLR,,0.00,WeatherDisplay:10.37,2013-01-07 02:02:00,
2013-01-06 18:07:00,31.5,22.8,30.23,SE,144,3.5,3.5,70,0.00,CLR,,0.00,WeatherDisplay:10.37,2013-01-07 02:07:00,
2013-01-06 18:12:00,31.5,22.8,30.23,SE,144,3.5,3.5,70,0.00,CLR,,0.00,WeatherDisplay:10.37,2013-01-07 02:12:00,
2013-01-06 18:17:00,31.5,22.8,30.23,SE,144,3.5,3.5,70,0.00,CLR,,0.00,WeatherDisplay:10.37,2013-01-07 02:17:00,
2013-01-06 18:22:00,31.5,22.8,30.23,SE,141,3.5,3.5,70,0.00,CLR,,0.00,WeatherDisplay:10.37,2013-01-07 02:22:00,
2013-01-06 18:27:00,31.6,22.9,30.23,SSE,154,5.8,5.8,70,0.00,CLR,,0.00,WeatherDisplay:10.37,2013-01-07 02:27:00,
2013-01-06 18:32:00,31.6,22.6,30.24,SE,140,3.5,3.5,69,0.00,CLR,,0.00,WeatherDisplay:10.37,2013-01-07 02:32:00,
2013-01-06 18:37:00,31.6,22.6,30.24,SE,141,2.3,2.3,69,0.00,CLR,,0.00,WeatherDisplay:10.37,2013-01-07 02:37:00,
2013-01-06 18:42:00,31.6,22.6,30.24,SE,141,1.1,0.0,69,0.00,CLR,,0.00,WeatherDisplay:10.37,2013-01-07 02:42:00,
2013-01-06 18:47:00,31.3,22.6,30.24,SE,141,0.0,0.0,70,0.00,CLR,,0.00,WeatherDisplay:10.37,2013-01-07 02:47:00,
2013-01-06 18:52:00,31.0,22.4,30.24,SE,140,0.0,0.0,70,0.00,CLR,,0.00,WeatherDisplay:10.37,2013-01-07 02:52:00,
2013-01-06 18:57:00,30.7,22.4,30.24,SE,140,0.0,0.0,71,0.00,CLR,,0.00,WeatherDisplay:10.37,2013-01-07 02:57:00,
2013-01-06 19:02:00,30.3,22.0,30.25,SE,141,0.0,0.0,71,0.00,CLR,,0.00,WeatherDisplay:10.37,2013-01-07 03:02:00,
2013-01-06 19:07:00,30.1,22.2,30.24,SE,141,1.1,1.1,72,0.00,CLR,,0.00,WeatherDisplay:10.37,2013-01-07 03:07:00,
2013-01-06 19:12:00,30.3,22.4,30.25,SE,140,1.1,0.0,72,0.00,CLR,,0.00,WeatherDisplay:10.37,2013-01-07 03:12:00,
2013-01-06 19:17:00,30.3,22.4,30.24,SE,140,2.3,2.3,72,0.00,CLR,,0.00,WeatherDisplay:10.37,2013-01-07 03:17:00,
2013-01-06 19:22:00,30.6,22.6,30.24,SE,140,5.0,5.0,72,0.00,CLR,,0.00,WeatherDisplay:10.37,2013-01-07 03:22:00,
2013-01-06 19:27:00,30.6,22.3,30.23,SE,140,3.5,3.5,71,0.00,CLR,,0.00,WeatherDisplay:10.37,2013-01-07 03:27:00,
2013-01-06 19:32:00,30.4,22.1,30.23,SE,141,3.5,3.5,71,0.00,CLR,,0.00,WeatherDisplay:10.37,2013-01-07 03:32:00,
2013-01-06 19:37:00,30.3,22.0,30.22,SE,141,4.6,4.6,71,0.00,CLR,,0.00,WeatherDisplay:10.37,2013-01-07 03:37:00,
2013-01-06 19:42:00,30.6,22.3,30.22,SE,134,6.0,6.0,71,0.00,CLR,,0.00,WeatherDisplay:10.37,2013-01-07 03:42:00,
2013-01-06 19:47:00,30.7,22.1,30.22,SE,138,6.9,6.9,70,0.00,CLR,,0.00,WeatherDisplay:10.37,2013-01-07 03:47:00,
2013-01-06 19:52:00,31.0,22.0,30.22,SE,134,6.9,6.9,69,0.00,CLR,,0.00,WeatherDisplay:10.37,2013-01-07 03:52:00,
2013-01-06 19:57:00,31.2,22.2,30.22,SE,127,4.6,4.6,69,0.00,CLR,,0.00,WeatherDisplay:10.37,2013-01-07 03:57:00,
2013-01-06 20:02:00,31.3,22.0,30.22,SE,131,6.0,6.0,68,0.00,CLR,,0.00,WeatherDisplay:10.37,2013-01-07 04:02:00,
2013-01-06 20:07:00,31.5,22.1,30.21,SE,138,8.1,8.1,68,0.00,CLR,,0.00,WeatherDisplay:10.37,2013-01-07 04:07:00,
2013-01-06 20:12:00,31.6,21.9,30.20,SE,134,6.9,6.9,67,0.00,CLR,,0.00,WeatherDisplay:10.37,2013-01-07 04:12:00,
2013-01-06 20:17:00,31.8,22.1,30.20,SE,134,5.8,5.8,67,0.00,CLR,,0.00,WeatherDisplay:10.37,2013-01-07 04:17:00,
2013-01-06 20:22:00,31.8,22.1,30.20,SE,134,5.8,5.8,67,0.00,CLR,,0.00,WeatherDisplay:10.37,2013-01-07 04:22:00,
2013-01-06 20:27:00,31.8,22.1,30.20,SE,131,5.0,5.0,67,0.00,CLR,,0.00,WeatherDisplay:10.37,2013-01-07 04:27:00,
2013-01-06 20:32:00,31.9,21.8,30.21,SE,133,5.8,5.8,66,0.00,CLR,,0.00,WeatherDisplay:10.37,2013-01-07 04:32:00,
2013-01-06 20:37:00,31.9,21.8,30.21,ESE,113,3.5,3.5,66,0.00,CLR,,0.00,WeatherDisplay:10.37,2013-01-07 04:37:00,
2013-01-06 20:42:00,31.9,21.8,30.22,SE,136,3.5,3.5,66,0.00,CLR,,0.00,WeatherDisplay:10.37,2013-01-07 04:42:00,
2013-01-06 20:47:00,32.1,22.0,30.22,SE,136,1.0,1.0,66,0.00,CLR,,0.00,WeatherDisplay:10.37,2013-01-07 04:47:00,
2013-01-06 20:52:00,32.1,21.7,30.22,SE,136,2.0,2.0,65,0.00,CLR,,0.00,WeatherDisplay:10.37,2013-01-07 04:52:00,
2013-01-06 20:57:00,32.1,22.0,30.22,SE,136,2.3,2.3,66,0.00,CLR,,0.00,WeatherDisplay:10.37,2013-01-07 04:57:00,
2013-01-06 21:00:00,31.9,21.8,30.22,SE,128,3.5,3.5,66,0.00,CLR,,0.00,WeatherDisplay:10.37,2013-01-07 05:00:00,
2013-01-06 21:01:00,31.9,21.8,30.22,SE,132,0.0,3.0,66,0.00,CLR,,0.00,WeatherDisplay:10.37,2013-01-07 05:01:00,
2013-01-06 21:03:00,31.9,21.8,30.20,SE,128,2.3,2.3,66,0.00,CLR,,0.00,WeatherDisplay:10.37,2013-01-07 05:03:00,
2013-01-06 21:05:00,31.9,21.8,30.20,ESE,122,0.0,3.0,66,0.00,CLR,,0.00,WeatherDisplay:10.37,2013-01-07 05:05:00,
2013-01-06 21:10:00,31.9,22.2,30.20,ESE,109,1.0,5.0,67,0.00,CLR,,0.00,WeatherDisplay:10.37,2013-01-07 05:10:00,
2013-01-06 21:16:00,31.9,21.8,30.20,East,97,7.0,7.0,66,0.00,CLR,,0.00,WeatherDisplay:10.37,2013-01-07 05:16:00,
2013-01-06 21:21:00,31.8,21.7,30.20,East,93,6.9,6.9,66,0.00,CLR,,0.00,WeatherDisplay:10.37,2013-01-07 05:21:00,
2013-01-06 21:26:00,31.2,21.5,30.20,ESE,117,5.8,5.8,67,0.00,CLR,,0.00,WeatherDisplay:10.37,2013-01-07 05:26:00,
2013-01-06 21:31:00,30.4,20.7,30.20,ESE,107,6.9,6.9,67,0.00,CLR,,0.00,WeatherDisplay:10.37,2013-01-07 05:31:00,
2013-01-06 21:36:00,30.0,20.7,30.21,East,96,6.9,6.9,68,0.00,CLR,,0.00,WeatherDisplay:10.37,2013-01-07 05:36:00,
2013-01-06 21:41:00,29.7,20.4,30.21,SE,144,4.6,4.6,68,0.00,CLR,,0.00,WeatherDisplay:10.37,2013-01-07 05:41:00,
2013-01-06 21:46:00,29.5,20.6,30.21,ESE,107,5.8,5.8,69,0.00,CLR,,0.00,WeatherDisplay:10.37,2013-01-07 05:46:00,
2013-01-06 21:51:00,29.5,20.6,30.21,ESE,107,6.9,6.9,69,0.00,CLR,,0.00,WeatherDisplay:10.37,2013-01-07 05:51:00,
2013-01-06 21:56:00,29.5,20.6,30.21,SE,128,6.9,6.9,69,0.00,CLR,,0.00,WeatherDisplay:10.37,2013-01-07 05:56:00,
2013-01-06 22:01:00,29.5,20.6,30.21,ESE,109,3.5,3.5,69,0.00,CLR,,0.00,WeatherDisplay:10.37,2013-01-07 06:01:00,
2013-01-06 22:06:00,29.5,20.6,30.19,SE,130,3.5,3.5,69,0.00,CLR,,0.00,WeatherDisplay:10.37,2013-01-07 06:06:00,
2013-01-06 22:11:00,29.5,20.6,30.19,ESE,123,3.5,3.5,69,0.00,CLR,,0.00,WeatherDisplay:10.37,2013-01-07 06:11:00,
2013-01-06 22:16:00,29.7,20.8,30.19,ESE,117,3.5,3.5,69,0.00,CLR,,0.00,WeatherDisplay:10.37,2013-01-07 06:16:00,
2013-01-06 22:21:00,29.7,20.8,30.19,ESE,107,4.6,4.6,69,0.00,CLR,,0.00,WeatherDisplay:10.37,2013-01-07 06:21:00,
2013-01-06 22:26:00,29.5,20.6,30.19,East,82,5.8,5.8,69,0.00,CLR,,0.00,WeatherDisplay:10.37,2013-01-07 06:26:00,
2013-01-06 22:31:00,29.4,20.5,30.19,ESE,114,3.5,3.5,69,0.00,CLR,,0.00,WeatherDisplay:10.37,2013-01-07 06:31:00,
2013-01-06 22:36:00,29.4,20.8,30.18,East,97,2.3,2.3,70,0.00,CLR,,0.00,WeatherDisplay:10.37,2013-01-07 06:36:00,
2013-01-06 22:41:00,29.4,20.8,30.18,ESE,109,4.6,4.6,70,0.00,CLR,,0.00,WeatherDisplay:10.37,2013-01-07 06:41:00,
2013-01-06 22:46:00,29.4,20.8,30.19,ESE,104,3.5,3.5,70,0.00,CLR,,0.00,WeatherDisplay:10.37,2013-01-07 06:46:00,
2013-01-06 22:51:00,29.4,20.5,30.19,ESE,117,6.0,6.0,69,0.00,CLR,,0.00,WeatherDisplay:10.37,2013-01-07 06:51:00,
2013-01-06 22:56:00,29.5,20.6,30.19,East,93,2.3,2.3,69,0.00,CLR,,0.00,WeatherDisplay:10.37,2013-01-07 06:56:00,
2013-01-06 23:01:00,29.5,20.9,30.18,East,95,5.0,5.0,70,0.00,CLR,,0.00,WeatherDisplay:10.37,2013-01-07 07:01:00,
2013-01-06 23:07:00,29.7,20.8,30.16,ESE,112,2.3,2.3,69,0.00,CLR,,0.00,WeatherDisplay:10.37,2013-01-07 07:07:00,
2013-01-06 23:12:00,29.7,20.4,30.16,ESE,102,6.9,6.9,68,0.00,CLR,,0.00,WeatherDisplay:10.37,2013-01-07 07:12:00,
2013-01-06 23:17:00,29.8,20.9,30.16,East,82,3.5,3.5,69,0.00,CLR,,0.00,WeatherDisplay:10.37,2013-01-07 07:17:00,
2013-01-06 23:22:00,29.8,20.5,30.16,ESE,114,3.5,3.5,68,0.00,CLR,,0.00,WeatherDisplay:10.37,2013-01-07 07:22:00,
2013-01-06 23:27:00,29.8,20.5,30.16,ESE,120,1.1,0.0,68,0.00,CLR,,0.00,WeatherDisplay:10.37,2013-01-07 07:27:00,
2013-01-06 23:32:00,29.8,20.5,30.16,SE,134,3.5,3.5,68,0.00,CLR,,0.00,WeatherDisplay:10.37,2013-01-07 07:32:00,
2013-01-06 23:37:00,30.0,20.7,30.15,ESE,110,4.6,4.6,68,0.00,CLR,,0.00,WeatherDisplay:10.37,2013-01-07 07:37:00,
2013-01-06 23:42:00,30.0,20.7,30.15,East,96,4.6,4.6,68,0.00,CLR,,0.00,WeatherDisplay:10.37,2013-01-07 07:42:00,
2013-01-06 23:47:00,29.8,20.9,30.15,SE,130,4.6,4.6,69,0.00,CLR,,0.00,WeatherDisplay:10.37,2013-01-07 07:47:00,
2013-01-06 23:52:00,29.8,20.9,30.15,SE,130,2.3,2.3,69,0.00,CLR,,0.00,WeatherDisplay:10.37,2013-01-07 07:52:00,
2013-01-06 23:58:00,30.0,21.4,30.15,South,171,3.5,3.5,70,0.00,CLR,,0.00,WeatherDisplay:10.37,2013-01-07 07:58:00,